Time;durP1;ratioP1;P1;durP2;ratioP2;P2;SDS_P1;SDS_P2;PMS_P1;PMS_P2;Temp;Humidity;BMP_temperature;BMP_pressure;BME280_temperature;BME280_humidity;BME280_pressure;Samples;Min_cycle;Max_cycle;Signal;HPM_P1;HPM_P2
2023/07/09 00:00:29;;;;;;;12.13;6.82;;;;;;;16.93;100.00;98881.28;4154458;28;20091;-72
2023/07/09 00:02:29;;;;;;;9.25;6.68;;;;;;;16.85;100.00;98891.69;4152367;28;20045;-73
2023/07/09 00:04:30;;;;;;;9.65;6.90;;;;;;;16.76;100.00;98896.97;4150388;28;20077;-73
2023/07/09 00:06:30;;;;;;;7.45;6.32;;;;;;;16.69;100.00;98888.63;4150809;28;20041;-73
2023/07/09 00:08:31;;;;;;;10.05;6.60;;;;;;;16.69;100.00;98894.22;4149004;28;20364;-72
2023/07/09 00:10:34;;;;;;;12.43;7.50;;;;;;;16.63;100.00;98895.00;4153375;28;20108;-73
2023/07/09 00:12:34;;;;;;;8.63;6.60;;;;;;;16.58;100.00;98904.63;4149037;28;20073;-72
2023/07/09 00:14:34;;;;;;;11.60;8.07;;;;;;;16.54;100.00;98903.84;4149437;28;20517;-73
2023/07/09 00:16:35;;;;;;;8.50;7.05;;;;;;;16.51;100.00;98904.66;4147879;28;20383;-72
2023/07/09 00:18:35;;;;;;;8.93;6.90;;;;;;;16.46;100.00;98900.28;4149018;28;20029;-73
2023/07/09 00:20:35;;;;;;;10.07;7.60;;;;;;;16.42;100.00;98905.13;4150517;28;20041;-73
2023/07/09 00:22:35;;;;;;;10.23;7.28;;;;;;;16.39;100.00;98899.56;4149611;28;20049;-73
2023/07/09 00:24:36;;;;;;;8.35;7.00;;;;;;;16.35;100.00;98895.97;4155170;28;20509;-72
2023/07/09 00:26:38;;;;;;;9.82;6.90;;;;;;;16.35;100.00;98895.97;4152463;28;20120;-72
2023/07/09 00:28:39;;;;;;;12.07;7.13;;;;;;;16.36;100.00;98891.97;4152775;28;20033;-73
2023/07/09 00:30:39;;;;;;;9.75;7.40;;;;;;;16.32;100.00;98905.19;4153419;28;20494;-72
2023/07/09 00:32:43;;;;;;;10.52;7.25;;;;;;;16.24;100.00;98902.41;4152371;28;20128;-72
2023/07/09 00:34:48;;;;;;;9.68;7.40;;;;;;;16.19;100.00;98904.81;4145412;28;20378;-72
2023/07/09 00:36:50;;;;;;;9.02;7.25;;;;;;;16.12;100.00;98902.06;4144307;28;20060;-72
2023/07/09 00:38:51;;;;;;;9.77;8.00;;;;;;;16.11;100.00;98892.09;4146020;28;20033;-72
2023/07/09 00:41:00;;;;;;;11.75;7.32;;;;;;;16.09;100.00;98902.88;4145809;28;20037;-72
2023/07/09 00:43:01;;;;;;;8.18;7.10;;;;;;;16.04;100.00;98895.69;4146850;28;20052;-72
2023/07/09 00:45:01;;;;;;;10.30;7.85;;;;;;;15.95;100.00;98895.34;4146193;28;20542;-72
2023/07/09 00:47:01;;;;;;;12.25;8.20;;;;;;;15.94;100.00;98900.13;4148375;28;20076;-72
2023/07/09 00:49:08;;;;;;;11.35;7.75;;;;;;;15.90;100.00;98899.34;4146965;28;20397;-72
2023/07/09 00:54:24;;;;;;;10.05;7.90;;;;;;;15.82;100.00;98897.78;4148819;28;20118;-72
2023/07/09 00:56:33;;;;;;;17.98;8.38;;;;;;;15.77;100.00;98894.59;4149827;28;20080;-72
2023/07/09 00:58:37;;;;;;;10.18;8.00;;;;;;;15.70;100.00;98893.41;4153146;28;20038;-72
2023/07/09 01:00:47;;;;;;;9.13;6.47;;;;;;;15.69;100.00;98889.03;4149911;28;20289;-72
2023/07/09 01:02:48;;;;;;;10.35;7.80;;;;;;;15.66;100.00;98894.66;4151240;28;20050;-72
2023/07/09 01:04:51;;;;;;;10.02;7.25;;;;;;;15.66;100.00;98889.06;4163064;28;20271;-72
2023/07/09 01:06:54;;;;;;;11.20;7.97;;;;;;;15.58;100.00;98898.63;4157819;28;20037;-72
2023/07/09 01:08:55;;;;;;;9.63;8.00;;;;;;;15.50;100.00;98892.25;4156586;28;20473;-72
2023/07/09 01:10:57;;;;;;;9.07;7.78;;;;;;;15.48;100.00;98897.44;4160017;28;20044;-72
2023/07/09 01:12:57;;;;;;;10.70;7.82;;;;;;;15.46;100.00;98906.19;4160627;28;20394;-72
2023/07/09 01:14:59;;;;;;;8.82;7.78;;;;;;;15.39;100.00;98905.38;4159599;28;20473;-72
2023/07/09 01:17:02;;;;;;;11.30;8.00;;;;;;;15.28;100.00;98905.41;4161373;28;20482;-72
2023/07/09 01:19:06;;;;;;;9.73;7.15;;;;;;;15.15;100.00;98895.88;4155273;28;20252;-72
2023/07/09 01:21:15;;;;;;;11.75;7.97;;;;;;;15.10;100.00;98907.41;4161518;28;20140;-72
2023/07/09 01:23:16;;;;;;;11.18;7.88;;;;;;;15.07;100.00;98909.00;4169084;28;20225;-72
2023/07/09 01:25:17;;;;;;;10.68;8.30;;;;;;;15.09;100.00;98911.41;4157607;28;20046;-72
2023/07/09 01:27:21;;;;;;;11.02;7.90;;;;;;;15.06;100.00;98914.94;4153746;28;20513;-72
2023/07/09 01:29:22;;;;;;;12.80;7.88;;;;;;;15.04;100.00;98915.34;4166048;28;20132;-72
2023/07/09 01:31:23;;;;;;;11.90;8.35;;;;;;;15.03;100.00;98908.19;4163098;28;20526;-72
2023/07/09 01:33:23;;;;;;;9.38;7.45;;;;;;;15.02;100.00;98908.59;4155933;28;20057;-72
2023/07/09 01:35:26;;;;;;;11.15;8.27;;;;;;;14.97;100.00;98908.97;4161942;28;20470;-72
2023/07/09 01:37:27;;;;;;;9.90;8.32;;;;;;;14.92;100.00;98903.81;4159793;28;20041;-72
2023/07/09 01:39:28;;;;;;;8.55;7.00;;;;;;;14.88;100.00;98909.38;4157023;28;20029;-72
2023/07/09 01:41:28;;;;;;;12.30;8.13;;;;;;;14.86;100.00;98906.19;4163400;28;20385;-72
2023/07/09 01:43:29;;;;;;;10.05;7.07;;;;;;;14.82;100.00;98899.84;4157936;28;20033;-72
2023/07/09 01:45:29;;;;;;;9.02;6.47;;;;;;;14.80;100.00;98904.97;4161859;28;20469;-72
2023/07/09 01:47:30;;;;;;;10.23;8.00;;;;;;;14.75;100.00;98906.19;4162054;28;20083;-72
2023/07/09 01:49:32;;;;;;;8.55;7.13;;;;;;;14.78;100.00;98904.59;4161804;28;20029;-72
2023/07/09 01:51:33;;;;;;;12.02;8.10;;;;;;;14.74;100.00;98901.03;4156162;28;20111;-72
2023/07/09 01:53:35;;;;;;;8.52;6.95;;;;;;;14.73;100.00;98903.00;4158412;28;20439;-72
2023/07/09 01:55:36;;;;;;;13.10;7.70;;;;;;;14.70;100.00;98911.34;4159903;28;20104;-72
2023/07/09 01:57:36;;;;;;;11.52;7.60;;;;;;;14.69;100.00;98910.53;4162191;28;20394;-72
2023/07/09 01:59:40;;;;;;;9.85;8.00;;;;;;;14.66;100.00;98900.22;4155677;28;20056;-72
2023/07/09 02:01:42;;;;;;;9.43;7.10;;;;;;;14.68;100.00;98908.97;4159762;28;20088;-72
2023/07/09 02:03:43;;;;;;;10.70;7.25;;;;;;;14.61;100.00;98904.16;4160662;28;20212;-72
2023/07/09 02:05:43;;;;;;;10.88;7.22;;;;;;;14.59;100.00;98898.19;4157088;28;20045;-72
2023/07/09 02:07:44;;;;;;;12.85;7.50;;;;;;;14.59;100.00;98902.97;4162066;28;20533;-72
2023/07/09 02:09:44;;;;;;;13.02;7.80;;;;;;;14.61;100.00;98906.16;4163189;28;20140;-72
2023/07/09 02:11:44;;;;;;;9.75;7.38;;;;;;;14.57;100.00;98906.16;4158867;28;20133;-72
2023/07/09 02:13:45;;;;;;;7.90;6.85;;;;;;;14.52;100.00;98902.97;4155076;28;20034;-72
2023/07/09 02:15:45;;;;;;;9.35;7.55;;;;;;;14.50;100.00;98905.34;4156576;28;20351;-72
2023/07/09 02:17:45;;;;;;;9.63;7.70;;;;;;;14.48;100.00;98908.53;4161220;28;20049;-72
2023/07/09 02:19:46;;;;;;;9.38;8.00;;;;;;;14.44;100.00;98909.66;4156509;28;20029;-72
2023/07/09 02:21:46;;;;;;;10.90;7.63;;;;;;;14.38;100.00;98906.47;4164353;28;20095;-72
2023/07/09 02:23:46;;;;;;;12.20;7.82;;;;;;;14.34;100.00;98911.22;4167712;28;20088;-72
2023/07/09 02:25:47;;;;;;;9.32;7.75;;;;;;;14.31;100.00;98915.59;4158988;28;20597;-72
2023/07/09 02:27:47;;;;;;;10.77;8.10;;;;;;;14.27;100.00;98911.19;4168089;28;20085;-72
2023/07/09 02:29:48;;;;;;;8.95;7.32;;;;;;;14.24;100.00;98910.00;4159488;28;20061;-72
2023/07/09 02:31:50;;;;;;;8.75;6.90;;;;;;;14.24;100.00;98912.00;4168151;28;20041;-72
2023/07/09 02:33:50;;;;;;;14.35;8.05;;;;;;;14.22;100.00;98917.94;4171416;28;20044;-72
2023/07/09 02:35:51;;;;;;;9.65;7.53;;;;;;;14.21;100.00;98909.97;4173659;28;20110;-72
2023/07/09 02:37:51;;;;;;;11.32;7.40;;;;;;;14.17;100.00;98914.75;4172302;28;20103;-72
2023/07/09 02:39:52;;;;;;;13.32;7.13;;;;;;;14.15;100.00;98917.09;4173738;28;20046;-72
2023/07/09 02:41:53;;;;;;;11.10;8.00;;;;;;;14.08;100.00;98925.44;4162459;28;20045;-72
2023/07/09 02:43:54;;;;;;;10.60;7.75;;;;;;;14.02;100.00;98923.03;4161568;28;20421;-72
2023/07/09 02:45:54;;;;;;;8.73;7.32;;;;;;;14.00;100.00;98914.28;4163648;28;20373;-72
2023/07/09 02:47:54;;;;;;;10.35;7.20;;;;;;;13.95;100.00;98919.41;4167316;28;20473;-72
2023/07/09 02:49:55;;;;;;;10.07;7.43;;;;;;;13.98;100.00;98921.41;4158698;28;20468;-72
2023/07/09 02:51:55;;;;;;;8.70;6.90;;;;;;;13.94;100.00;98910.25;4163978;28;20135;-72
2023/07/09 02:53:57;;;;;;;9.05;7.07;;;;;;;13.93;100.00;98921.78;4163855;28;20042;-72
2023/07/09 02:55:57;;;;;;;8.88;7.10;;;;;;;13.88;100.00;98922.94;4158257;28;20033;-72
2023/07/09 02:57:58;;;;;;;10.80;6.68;;;;;;;13.84;100.00;98913.78;4158025;28;20059;-72
2023/07/09 02:59:58;;;;;;;8.52;7.07;;;;;;;13.81;100.00;98917.34;4158451;28;20037;-72
2023/07/09 03:02:00;;;;;;;8.52;6.63;;;;;;;13.83;100.00;98916.97;4158326;28;20670;-72
2023/07/09 03:04:01;;;;;;;9.70;7.13;;;;;;;13.82;100.00;98916.19;4158208;28;20076;-72
2023/07/09 03:06:02;;;;;;;13.00;6.90;;;;;;;13.82;100.00;98918.13;4171592;28;20276;-72
2023/07/09 03:08:02;;;;;;;10.75;7.00;;;;;;;13.83;100.00;98909.44;4160831;28;20970;-72
2023/07/09 03:10:03;;;;;;;8.85;6.50;;;;;;;13.77;100.00;98906.22;4168887;28;20527;-72
2023/07/09 03:12:03;;;;;;;11.27;7.13;;;;;;;13.82;100.00;98910.63;4171597;28;20036;-72
2023/07/09 03:14:04;;;;;;;8.45;6.80;;;;;;;13.85;100.00;98914.59;4173317;28;20362;-72
2023/07/09 03:16:05;;;;;;;10.48;6.63;;;;;;;13.81;100.00;98913.75;4172419;28;20037;-72
2023/07/09 03:18:05;;;;;;;10.23;7.10;;;;;;;13.74;100.00;98915.34;4166467;28;20030;-72
2023/07/09 03:20:07;;;;;;;10.50;6.93;;;;;;;13.72;100.00;98914.91;4160209;28;20666;-72
2023/07/09 03:22:08;;;;;;;9.05;7.32;;;;;;;13.69;100.00;98912.13;4159925;28;20033;-72
2023/07/09 03:24:08;;;;;;;9.48;6.80;;;;;;;13.64;100.00;98918.03;4157199;28;20029;-72
2023/07/09 03:26:08;;;;;;;9.18;6.35;;;;;;;13.60;100.00;98914.44;4157933;28;20033;-72
2023/07/09 03:28:10;;;;;;;8.85;7.03;;;;;;;13.59;100.00;98930.34;4160045;28;20496;-72
2023/07/09 03:30:10;;;;;;;11.40;6.75;;;;;;;13.59;100.00;98929.53;4157098;28;20041;-72
2023/07/09 03:32:11;;;;;;;8.10;6.78;;;;;;;13.59;100.00;98930.34;4166631;28;20426;-72
2023/07/09 03:34:11;;;;;;;10.80;7.15;;;;;;;13.62;100.00;98934.31;4157229;28;20480;-72
2023/07/09 03:36:11;;;;;;;10.75;7.47;;;;;;;13.61;100.00;98930.75;4170066;28;20159;-72
2023/07/09 03:38:12;;;;;;;9.75;6.95;;;;;;;13.60;100.00;98939.47;4160969;28;20040;-72
2023/07/09 03:40:21;;;;;;;8.15;6.63;;;;;;;13.62;100.00;98942.66;4169244;28;20741;-72
2023/07/09 03:42:21;;;;;;;9.80;7.43;;;;;;;13.69;100.00;98935.16;4162420;28;20084;-72
2023/07/09 03:44:22;;;;;;;10.05;7.40;;;;;;;13.74;100.00;98939.56;4157479;28;20037;-72
2023/07/09 03:46:22;;;;;;;10.27;7.57;;;;;;;13.75;100.00;98933.63;4157744;28;20493;-72
2023/07/09 03:48:22;;;;;;;9.35;6.30;;;;;;;13.78;100.00;98932.81;4162965;28;20038;-72
2023/07/09 03:50:23;;;;;;;12.63;7.20;;;;;;;13.82;100.00;98932.03;4157961;28;20041;-72
2023/07/09 03:52:23;;;;;;;11.25;7.20;;;;;;;13.84;100.00;98938.03;4167493;28;20382;-72
2023/07/09 03:54:23;;;;;;;12.23;7.40;;;;;;;13.85;100.00;98945.19;4172068;28;20052;-72
2023/07/09 03:56:24;;;;;;;10.40;7.45;;;;;;;13.84;100.00;98946.38;4172511;28;20045;-72
2023/07/09 03:58:25;;;;;;;10.82;7.43;;;;;;;13.86;100.00;98946.78;4169125;28;20044;-72
2023/07/09 04:00:25;;;;;;;10.88;7.45;;;;;;;13.87;100.00;98946.38;4157498;28;20433;-72
2023/07/09 04:02:25;;;;;;;12.40;7.75;;;;;;;13.87;100.00;98949.16;4156702;28;20045;-72
2023/07/09 04:04:26;;;;;;;13.10;7.43;;;;;;;13.86;100.00;98942.00;4157338;28;20029;-72
2023/07/09 04:06:26;;;;;;;10.38;7.03;;;;;;;13.90;100.00;98948.41;4157306;28;20187;-72
2023/07/09 04:08:26;;;;;;;10.50;7.78;;;;;;;13.92;100.00;98946.03;4167734;28;20037;-72
2023/07/09 04:10:27;;;;;;;10.02;7.97;;;;;;;13.95;100.00;98944.44;4157948;28;20041;-72
2023/07/09 04:12:27;;;;;;;10.52;8.27;;;;;;;13.99;100.00;98951.63;4157199;28;20060;-72
2023/07/09 04:14:27;;;;;;;9.15;7.13;;;;;;;14.05;100.00;98946.47;4156541;28;20042;-71
2023/07/09 04:16:28;;;;;;;8.10;7.28;;;;;;;14.15;100.00;98954.09;4157535;28;20056;-72
2023/07/09 04:18:28;;;;;;;17.23;7.47;;;;;;;14.21;100.00;98946.94;4167640;28;20733;-72
2023/07/09 04:20:28;;;;;;;11.38;7.50;;;;;;;14.24;100.00;98948.19;4157663;28;20120;-72
2023/07/09 04:22:29;;;;;;;11.25;7.72;;;;;;;14.30;100.00;98952.16;4156922;28;20041;-72
2023/07/09 04:24:31;;;;;;;10.80;7.70;;;;;;;14.36;100.00;98950.59;4157028;28;20136;-72
2023/07/09 04:26:31;;;;;;;10.65;7.70;;;;;;;14.43;100.00;98950.63;4156868;28;20476;-72
2023/07/09 04:28:32;;;;;;;9.93;7.65;;;;;;;14.48;100.00;98949.47;4165438;28;20049;-72
2023/07/09 04:30:32;;;;;;;10.20;7.65;;;;;;;14.52;100.00;98950.28;4170811;28;20124;-72
2023/07/09 04:32:32;;;;;;;8.88;7.97;;;;;;;14.59;100.00;98955.88;4157823;28;20045;-72
2023/07/09 04:34:33;;;;;;;9.25;7.95;;;;;;;14.66;100.00;98952.31;4160304;28;20532;-72
2023/07/09 04:36:33;;;;;;;13.25;8.02;;;;;;;14.69;100.00;98948.75;4171731;28;20049;-72
2023/07/09 04:38:34;;;;;;;10.95;7.93;;;;;;;14.76;100.00;98943.19;4161254;28;20094;-72
2023/07/09 04:40:34;;;;;;;11.10;7.95;;;;;;;14.86;100.00;98954.34;4160921;28;20037;-72
2023/07/09 04:42:34;;;;;;;10.00;8.30;;;;;;;14.95;100.00;98948.38;4161450;28;20048;-72
2023/07/09 04:44:35;;;;;;;12.23;8.23;;;;;;;15.06;100.00;98945.59;4162529;28;20500;-72
2023/07/09 04:46:35;;;;;;;11.02;8.00;;;;;;;15.16;100.00;98942.84;4159032;28;20041;-72
2023/07/09 04:48:35;;;;;;;10.43;7.72;;;;;;;15.28;100.00;98946.44;4158632;28;20073;-72
2023/07/09 04:50:36;;;;;;;9.55;7.40;;;;;;;15.41;100.00;98939.28;4158491;28;20068;-72
2023/07/09 04:52:36;;;;;;;11.65;7.78;;;;;;;15.54;100.00;98937.66;4156108;28;20057;-72
2023/07/09 04:54:43;;;;;;;13.23;7.50;;;;;;;15.64;100.00;98948.03;4163523;28;20028;-72
2023/07/09 04:56:44;;;;;;;12.35;7.88;;;;;;;15.77;100.00;98939.25;4170815;28;20025;-72
2023/07/09 04:58:45;;;;;;;10.75;7.03;;;;;;;15.89;100.00;98933.25;4158602;28;20045;-72
2023/07/09 05:00:45;;;;;;;10.63;7.65;;;;;;;15.99;100.00;98944.38;4171045;28;20056;-72
2023/07/09 05:02:45;;;;;;;11.93;7.60;;;;;;;16.11;100.00;98931.16;4171821;28;20055;-72
2023/07/09 05:04:46;;;;;;;15.43;7.95;;;;;;;16.22;100.00;98940.31;4161641;28;20053;-72
2023/07/09 05:06:46;;;;;;;9.18;7.82;;;;;;;16.35;100.00;98944.25;4156489;28;20084;-72
2023/07/09 05:08:48;;;;;;;13.85;8.48;;;;;;;16.45;100.00;98940.59;4156199;28;20072;-72
2023/07/09 05:10:51;;;;;;;13.80;8.40;;;;;;;16.56;100.00;98937.78;4156305;28;20129;-72
2023/07/09 05:12:54;;;;;;;12.13;8.60;;;;;;;16.68;100.00;98942.88;4157735;28;20065;-72
2023/07/09 05:14:56;;;;;;;9.70;7.47;;;;;;;16.79;100.00;98938.03;4171414;28;20045;-72
2023/07/09 05:16:56;;;;;;;10.03;8.60;;;;;;;16.90;100.00;98946.38;4170280;28;20466;-72
2023/07/09 05:18:56;;;;;;;9.85;8.77;;;;;;;17.02;100.00;98947.88;4164496;28;20272;-72
2023/07/09 05:20:57;;;;;;;14.13;8.75;;;;;;;17.15;100.00;98948.22;4164699;28;20048;-72
2023/07/09 05:22:57;;;;;;;10.23;8.38;;;;;;;17.24;100.00;98951.34;4160110;28;20041;-72
2023/07/09 05:24:57;;;;;;;14.20;8.00;;;;;;;17.31;100.00;98957.66;4156809;28;20115;-72
2023/07/09 05:26:58;;;;;;;18.08;8.25;;;;;;;17.36;100.00;98945.22;4157637;28;20552;-72
2023/07/09 05:28:58;;;;;;;11.73;8.38;;;;;;;17.46;100.00;98952.75;4155481;28;20877;-72
2023/07/09 05:30:59;;;;;;;10.73;8.30;;;;;;;17.52;100.00;98951.09;4166187;28;20317;-72
2023/07/09 05:32:59;;;;;;;12.68;8.32;;;;;;;17.61;100.00;98957.00;4170070;28;20033;-72
2023/07/09 05:35:00;;;;;;;10.00;7.95;;;;;;;17.69;100.00;98961.31;4171454;28;20037;-72
2023/07/09 05:37:00;;;;;;;11.02;8.50;;;;;;;17.78;100.00;98946.88;4163528;28;20167;-72
2023/07/09 05:39:00;;;;;;;11.88;8.52;;;;;;;17.86;100.00;98953.97;4163718;28;20140;-72
2023/07/09 05:41:03;;;;;;;8.80;7.70;;;;;;;17.96;100.00;98943.91;4156125;28;20045;-72
2023/07/09 05:43:03;;;;;;;12.23;8.23;;;;;;;18.06;100.00;98951.38;4155433;28;20130;-72
2023/07/09 05:45:04;;;;;;;8.80;7.80;;;;;;;18.18;100.00;98958.44;4156998;28;20512;-72
2023/07/09 05:47:05;;;;;;;8.57;7.43;;;;;;;18.25;100.00;98947.16;4156113;28;20048;-72
2023/07/09 05:49:06;;;;;;;11.02;7.72;;;;;;;18.35;99.87;98953.84;4169320;28;20041;-72
2023/07/09 05:51:07;;;;;;;9.65;7.75;;;;;;;18.41;100.00;98955.78;4163228;28;20407;-73
2023/07/09 05:53:07;;;;;;;12.23;8.60;;;;;;;18.49;100.00;98960.06;4166138;28;20485;-72
2023/07/09 05:55:07;;;;;;;14.15;9.57;;;;;;;18.61;99.92;98957.91;4171582;28;20087;-72
2023/07/09 05:57:08;;;;;;;13.52;8.27;;;;;;;18.68;99.43;98958.66;4169269;28;20039;-72
2023/07/09 05:59:08;;;;;;;14.20;9.00;;;;;;;18.77;100.00;98963.72;4158222;28;20432;-72
2023/07/09 06:01:08;;;;;;;16.48;9.05;;;;;;;18.88;99.58;98955.19;4174649;28;20352;-72
2023/07/09 06:03:09;;;;;;;15.43;8.77;;;;;;;18.96;99.27;98951.88;4170509;28;20374;-72
2023/07/09 06:05:10;;;;;;;9.05;7.88;;;;;;;19.02;98.13;98952.94;4174056;28;20443;-72
2023/07/09 06:07:13;;;;;;;11.32;8.02;;;;;;;19.14;97.69;98959.22;4172310;28;20045;-72
2023/07/09 06:09:15;;;;;;;15.05;8.98;;;;;;;19.19;98.81;98959.50;4165316;28;20053;-73
2023/07/09 06:11:17;;;;;;;12.93;8.60;;;;;;;19.31;98.36;98958.13;4158695;28;20053;-72
2023/07/09 06:13:18;;;;;;;14.52;9.35;;;;;;;19.41;97.60;98954.34;4168519;28;20763;-72
2023/07/09 06:15:18;;;;;;;15.23;8.98;;;;;;;19.49;97.50;98955.81;4174131;28;20041;-72
2023/07/09 06:17:19;;;;;;;11.07;7.68;;;;;;;19.56;96.17;98954.91;4174598;28;20059;-73
2023/07/09 06:19:19;;;;;;;14.38;8.88;;;;;;;19.58;95.52;98958.13;4162794;28;20037;-72
2023/07/09 06:21:19;;;;;;;11.57;8.82;;;;;;;19.70;92.68;98959.53;4158657;28;20163;-73
2023/07/09 06:23:20;;;;;;;19.50;9.30;;;;;;;19.77;92.88;98950.97;4160030;28;20456;-73
2023/07/09 06:25:20;;;;;;;11.93;8.15;;;;;;;19.82;92.24;98951.28;4159263;28;20061;-72
2023/07/09 06:27:20;;;;;;;11.00;8.52;;;;;;;19.90;92.61;98955.53;4158672;28;20049;-72
2023/07/09 06:29:21;;;;;;;13.00;8.18;;;;;;;19.97;91.72;98953.81;4159446;28;20504;-73
2023/07/09 06:31:21;;;;;;;10.32;8.10;;;;;;;20.05;91.37;98947.63;4158495;28;20120;-73
2023/07/09 06:33:22;;;;;;;10.40;8.20;;;;;;;20.12;89.41;98961.56;4158026;28;20049;-72
2023/07/09 06:35:23;;;;;;;14.30;8.20;;;;;;;20.24;89.63;98950.88;4167677;28;20052;-73
2023/07/09 06:37:23;;;;;;;10.90;8.02;;;;;;;20.33;89.38;98956.72;4162628;28;20053;-73
2023/07/09 06:39:23;;;;;;;10.10;8.18;;;;;;;20.42;89.54;98957.72;4097646;28;20363;-73
2023/07/09 06:41:24;;;;;;;9.93;7.30;;;;;;;20.52;89.02;98957.97;4157344;28;20378;-73
2023/07/09 06:43:25;;;;;;;9.82;8.43;;;;;;;20.61;88.82;98956.16;4158001;28;20081;-73
2023/07/09 06:45:25;;;;;;;12.00;8.73;;;;;;;20.71;87.53;98962.78;4158412;28;20053;-73
2023/07/09 06:47:25;;;;;;;9.15;8.07;;;;;;;20.78;88.20;98957.00;4158537;28;20061;-73
2023/07/09 06:49:27;;;;;;;9.18;8.18;;;;;;;20.87;88.13;98962.84;4168565;28;20037;-73
2023/07/09 06:51:28;;;;;;;9.37;7.67;;;;;;;20.97;87.19;98963.81;4173585;28;20033;-73
2023/07/09 06:53:29;;;;;;;10.73;7.80;;;;;;;21.08;86.53;98969.19;4172185;28;20087;-73
2023/07/09 06:55:30;;;;;;;10.35;8.07;;;;;;;21.17;87.21;98961.72;4173271;28;20156;-73
2023/07/09 06:57:30;;;;;;;10.88;8.85;;;;;;;21.28;86.63;98970.75;4161719;28;20045;-73
2023/07/09 06:59:30;;;;;;;11.40;7.97;;;;;;;21.36;86.28;98959.31;4160461;28;20037;-73
2023/07/09 07:01:31;;;;;;;11.52;8.05;;;;;;;21.42;86.19;98957.53;4172803;28;20509;-73
2023/07/09 07:03:32;;;;;;;9.23;8.00;;;;;;;21.53;85.85;98966.53;4166225;28;20088;-73
2023/07/09 07:05:33;;;;;;;9.88;8.23;;;;;;;21.61;85.48;98959.50;4162265;28;20033;-73
2023/07/09 07:07:34;;;;;;;10.02;8.40;;;;;;;21.73;85.69;98955.94;4160519;28;20132;-73
2023/07/09 07:09:34;;;;;;;8.82;7.93;;;;;;;21.84;85.48;98950.03;4159046;28;20072;-74
2023/07/09 07:11:34;;;;;;;9.60;8.13;;;;;;;22.00;84.62;98955.63;4161012;28;20045;-73
2023/07/09 07:13:37;;;;;;;8.65;7.80;;;;;;;22.16;81.48;98949.19;4157677;28;20041;-74
2023/07/09 07:15:38;;;;;;;8.73;7.85;;;;;;;22.30;82.39;98951.63;4161133;28;20052;-74
2023/07/09 07:17:39;;;;;;;11.15;7.47;;;;;;;22.39;81.04;98954.56;4172200;28;20508;-73
2023/07/09 07:19:39;;;;;;;9.77;7.43;;;;;;;22.52;79.61;98951.81;4163447;28;20526;-73
2023/07/09 07:21:39;;;;;;;11.05;8.23;;;;;;;22.63;79.01;98952.28;4156578;28;20041;-74
2023/07/09 07:23:40;;;;;;;12.40;7.05;;;;;;;22.79;74.13;98950.59;4154366;28;20033;-74
2023/07/09 07:25:41;;;;;;;7.18;6.30;;;;;;;22.85;75.28;98946.03;4168406;28;20224;-73
2023/07/09 07:27:41;;;;;;;9.15;7.72;;;;;;;22.92;75.75;98952.25;4157573;28;20087;-74
2023/07/09 07:29:42;;;;;;;10.48;7.72;;;;;;;23.07;75.53;98946.13;4157094;28;20045;-73
2023/07/09 07:31:42;;;;;;;9.23;7.13;;;;;;;23.14;75.12;98949.53;4157976;28;20073;-73
2023/07/09 07:33:43;;;;;;;9.07;7.53;;;;;;;23.23;75.21;98946.00;4157004;28;20057;-73
2023/07/09 07:35:43;;;;;;;7.68;6.88;;;;;;;23.32;75.10;98948.94;4158093;28;20358;-74
2023/07/09 07:37:43;;;;;;;8.45;7.32;;;;;;;23.42;74.58;98944.22;4162390;28;20037;-74
2023/07/09 07:39:44;;;;;;;7.60;6.80;;;;;;;23.48;73.93;98943.16;4161651;28;20036;-74
2023/07/09 07:41:44;;;;;;;8.18;7.38;;;;;;;23.66;72.39;98942.59;4166591;28;20116;-74
2023/07/09 07:43:44;;;;;;;8.02;7.22;;;;;;;23.81;71.42;98949.34;4157055;28;20040;-74
2023/07/09 07:45:45;;;;;;;10.77;6.70;;;;;;;23.99;70.24;98956.41;4163365;28;20029;-72
2023/07/09 07:47:45;;;;;;;8.02;6.93;;;;;;;24.08;69.61;98950.84;4155095;28;20073;-72
2023/07/09 07:49:45;;;;;;;8.23;7.05;;;;;;;24.21;68.82;98950.78;4160891;28;20070;-73
2023/07/09 07:51:46;;;;;;;7.43;6.72;;;;;;;24.31;66.65;98956.03;4151824;28;20048;-72
2023/07/09 07:53:46;;;;;;;8.20;6.57;;;;;;;24.42;66.44;98944.38;4155811;28;20467;-73
2023/07/09 07:55:46;;;;;;;9.18;6.88;;;;;;;24.60;64.91;98940.88;4157701;28;20146;-72
2023/07/09 07:57:47;;;;;;;7.10;6.00;;;;;;;24.74;63.42;98945.19;4160498;28;20498;-72
2023/07/09 07:59:47;;;;;;;7.85;6.78;;;;;;;24.83;65.03;98946.03;4161302;28;20044;-73
2023/07/09 08:01:49;;;;;;;18.50;7.30;;;;;;;24.97;64.37;98936.19;4158569;28;20045;-73
2023/07/09 08:03:49;;;;;;;7.80;6.57;;;;;;;25.15;66.74;98946.81;4160008;28;20095;-73
2023/07/09 08:05:50;;;;;;;7.53;6.82;;;;;;;25.24;66.82;98941.22;4164168;28;20622;-74
2023/07/09 08:07:51;;;;;;;9.13;7.00;;;;;;;25.28;66.78;98935.41;4158876;28;20117;-73
2023/07/09 08:09:51;;;;;;;10.77;6.90;;;;;;;25.34;66.55;98939.19;4159385;28;20122;-73
2023/07/09 08:11:52;;;;;;;13.27;7.30;;;;;;;25.46;66.59;98941.91;4158627;28;20447;-74
2023/07/09 08:13:52;;;;;;;11.10;7.18;;;;;;;25.54;67.37;98935.94;4158477;28;20036;-73
2023/07/09 08:15:52;;;;;;;8.00;5.93;;;;;;;25.60;67.91;98928.41;4155797;28;20512;-74
2023/07/09 08:17:53;;;;;;;8.07;6.95;;;;;;;25.68;68.53;98929.69;4160560;28;20065;-74
2023/07/09 08:19:54;;;;;;;7.78;6.97;;;;;;;25.80;68.76;98937.28;4159736;28;20533;-74
2023/07/09 08:21:55;;;;;;;9.50;7.03;;;;;;;25.89;68.68;98930.81;4157600;28;20045;-73
2023/07/09 08:23:55;;;;;;;9.88;7.45;;;;;;;26.05;67.70;98931.31;4161430;28;21685;-73
2023/07/09 08:25:57;;;;;;;9.77;6.80;;;;;;;26.20;66.12;98919.34;4154042;28;20178;-73
2023/07/09 08:27:57;;;;;;;9.15;6.80;;;;;;;26.29;64.97;98920.09;4152300;28;20505;-73
2023/07/09 08:29:57;;;;;;;9.63;7.03;;;;;;;26.43;63.21;98920.75;4153609;28;20116;-73
2023/07/09 08:31:57;;;;;;;10.20;6.85;;;;;;;26.53;63.83;98916.63;4150701;28;20060;-73
2023/07/09 08:33:58;;;;;;;9.88;7.00;;;;;;;26.67;62.82;98921.66;4108719;28;20049;-73
2023/07/09 08:35:58;;;;;;;7.43;6.40;;;;;;;26.71;63.21;98913.75;4154066;28;20072;-73
2023/07/09 08:37:58;;;;;;;10.05;7.25;;;;;;;26.84;62.66;98913.56;4149168;28;20830;-73
2023/07/09 08:39:59;;;;;;;10.85;6.70;;;;;;;27.00;62.32;98916.03;4160274;28;20540;-73
2023/07/09 08:42:07;;;;;;;7.38;6.63;;;;;;;27.23;61.72;98923.06;4156500;28;20041;-73
2023/07/09 08:44:49;;;;;;;8.38;6.60;;;;;;;27.31;60.44;98915.75;4158918;28;20064;-74
2023/07/09 08:47:12;;;;;;;10.02;5.97;;;;;;;27.43;58.25;98913.94;4129169;28;20357;-76
2023/07/09 08:49:20;;;;;;;7.57;6.05;;;;;;;27.53;57.14;98908.97;4159308;28;20397;-71
2023/07/09 08:51:38;;;;;;;7.78;6.75;;;;;;;27.57;56.89;98909.59;4171110;28;20037;-71
2023/07/09 08:53:55;;;;;;;7.53;6.15;;;;;;;27.63;57.31;98905.59;4170298;28;20495;-73
2023/07/09 08:55:56;;;;;;;7.57;5.72;;;;;;;27.68;54.94;98913.50;4169760;28;20041;-73
2023/07/09 08:58:19;;;;;;;8.88;5.22;;;;;;;27.79;56.15;98910.09;4171501;28;20038;-73
2023/07/09 09:00:31;;;;;;;7.13;5.60;;;;;;;27.89;56.04;98908.78;4156218;28;20527;-73
2023/07/09 09:02:59;;;;;;;7.77;6.30;;;;;;;28.07;55.67;98913.53;4162060;28;20537;-73
2023/07/09 09:05:00;;;;;;;6.57;5.90;;;;;;;28.16;54.19;98912.66;4153246;28;20045;-73
2023/07/09 09:07:06;;;;;;;7.40;6.05;;;;;;;28.22;54.32;98913.56;4165711;28;20527;-73
2023/07/09 09:09:24;;;;;;;8.38;5.78;;;;;;;28.27;52.32;98905.09;4156155;28;20385;-73
2023/07/09 09:11:48;;;;;;;8.57;6.30;;;;;;;28.36;51.78;98909.16;4174507;28;20048;-73
2023/07/09 09:13:52;;;;;;;8.65;5.82;;;;;;;28.37;50.57;98902.19;4160259;28;20393;-73
2023/07/09 09:15:56;;;;;;;6.80;5.43;;;;;;;28.51;49.45;98913.59;4156111;28;20129;-72
2023/07/09 09:18:12;;;;;;;7.32;5.55;;;;;;;28.54;49.60;98915.44;4156172;28;20033;-72
2023/07/09 09:20:22;;;;;;;9.65;5.75;;;;;;;28.66;50.51;98912.81;4148931;28;20482;-74
2023/07/09 09:22:30;;;;;;;7.60;5.55;;;;;;;28.77;49.38;98905.25;4128933;28;20069;-74
2023/07/09 09:24:34;;;;;;;9.80;5.50;;;;;;;28.89;49.28;98908.28;4152012;28;20049;-74
2023/07/09 09:26:38;;;;;;;7.22;5.70;;;;;;;29.12;48.90;98918.00;4154667;28;20353;-74
2023/07/09 09:28:39;;;;;;;6.32;5.72;;;;;;;29.12;46.92;98903.75;4154885;28;20287;-74